Latest Weather Observations for Moorabbin Airport

IDV60901

Issued at 11:01 am EDT Saturday 20 December 2014 (issued every 10 minutes, with the page automatically refreshed every 10 minutes)

About weather observations | Map of Melbourne area stations | Latest observations for Melbourne area | Other Formats
Station Details ID: 086077 Name: MOORABBIN AIRPORT Lat: -37.98 Lon: 145.10 Height: 12.1 m
Data from the previous 72 hours. | See also: Recent months at Moorabbin Airport
Date/Time
EDT
Tmp

°C
App
Tmp
°C
Dew
Point
°C
Rel
Hum
%
Delta-T

°C
Wind Press
QNH
hPa
Press
MSL
hPa
Rain
since
9 am
mm
Dir
 
Spd
km/h
Gust
km/h
Spd
kts
Gust
kts
20/11:00am 17.7 14.5 8.3 54 4.8 SW 15 22 8 12 1019.5 1019.5 0.0
20/10:30am 16.9 14.0 9.6 62 3.8 SW 15 22 8 12 1019.5 1019.5 0.0
20/10:00am 17.4 14.9 9.8 61 4.0 WSW 13 24 7 13 1019.5 1019.5 0.0
20/09:30am 16.4 13.9 9.6 64 3.5 SW 13 24 7 13 1019.4 1019.4 0.0
20/09:00am 16.5 13.5 9.4 63 3.7 SW 15 20 8 11 1019.2 1019.2 0.0
20/08:30am 15.9 13.8 9.8 67 3.2 SW 11 17 6 9 1018.8 1018.8 0.0
20/08:00am 15.3 13.6 9.7 69 2.9 WSW 9 17 5 9 1018.5 1018.5 0.0
20/07:30am 14.4 12.7 9.8 74 2.4 NW 9 15 5 8 1018.3 1018.3 0.0
20/07:00am 14.0 12.0 10.0 77 2.1 N 11 13 6 7 1018.0 1018.0 0.0
20/06:30am 12.9 11.5 9.7 81 1.6 N 7 9 4 5 1017.8 1017.8 0.0
20/05:30am 12.7 10.8 9.2 79 1.8 N 9 11 5 6 1017.7 1017.7 0.0
20/05:00am 12.4 10.7 8.5 77 1.9 NNW 7 9 4 5 1017.6 1017.6 0.0
20/04:30am 12.8 11.2 8.7 76 2.0 N 7 7 4 4 1017.6 1017.6 0.0
20/04:00am 13.1 11.6 9.0 76 2.1 N 7 9 4 5 1017.7 1017.7 0.0
20/03:30am 12.8 11.2 8.9 77 2.0 N 7 11 4 6 1017.7 1017.7 0.0
20/03:00am 13.1 11.7 9.5 79 1.8 N 7 9 4 5 1017.8 1017.8 0.0
20/02:30am 13.4 11.9 8.5 72 2.4 NNW 6 9 3 5 1018.1 1018.1 0.0
20/02:00am 13.5 11.9 7.9 69 2.8 NE 6 9 3 5 1018.4 1018.4 0.0
20/01:30am 14.2 12.6 8.8 70 2.7 N 7 9 4 5 1018.6 1018.6 0.0
20/01:00am 14.2 12.6 8.6 69 2.8 ESE 7 11 4 6 1018.9 1018.9 0.0
20/12:30am 14.2 12.2 8.6 69 2.8 ESE 9 13 5 7 1019.1 1019.1 0.0
20/12:00am 14.2 12.2 8.6 69 2.8 ESE 9 11 5 6 1019.5 1019.4 0.0
 
Date/Time
EDT
Tmp

°C
App
Tmp
°C
Dew
Point
°C
Rel
Hum
%
Delta-T

°C
Wind Press
QNH
hPa
Press
MSL
hPa
Rain
since
9 am
mm
Dir
 
Spd
km/h
Gust
km/h
Spd
kts
Gust
kts
19/11:30pm 14.2 12.1 8.4 68 2.9 SE 9 13 5 7 1019.7 1019.7 0.0
19/11:00pm 13.9 11.8 8.1 68 2.9 ESE 9 11 5 6 1020.0 1020.0 0.0
19/10:30pm 13.4 10.8 7.8 69 2.8 ESE 11 13 6 7 1019.9 1019.9 0.0
19/10:00pm 13.7 11.0 7.2 65 3.2 SE 11 15 6 8 1019.8 1019.8 0.0
19/09:30pm 14.7 11.4 6.5 58 4.0 S 13 19 7 10 1019.6 1019.6 0.0
19/09:00pm 15.7 12.2 7.0 56 4.3 S 15 22 8 12 1019.6 1019.6 0.0
19/08:30pm 15.8 11.3 7.0 56 4.3 SSW 20 26 11 14 1019.6 1019.6 0.0
19/08:00pm 16.2 11.3 6.9 54 4.6 SSW 22 30 12 16 1019.5 1019.5 0.0
19/07:30pm 16.7 11.5 7.1 53 4.8 SSW 24 32 13 17 1019.0 1019.0 0.0
19/07:00pm 17.3 12.1 7.4 52 5.0 SSW 24 32 13 17 1018.5 1018.5 0.0
19/06:30pm 17.1 12.1 8.0 55 4.6 SSW 24 35 13 19 1018.2 1018.2 0.0
19/05:30pm 17.8 12.8 8.1 53 5.0 SSW 24 33 13 18 1017.9 1017.9 0.0
19/05:00pm 17.8 13.0 7.2 50 5.3 SSW 22 30 12 16 1017.9 1017.9 0.0
19/04:30pm 18.2 13.4 7.3 49 5.5 SSW 22 30 12 16 1017.8 1017.8 0.0
19/04:00pm 18.9 14.3 8.3 50 5.5 SSW 22 32 12 17 1017.7 1017.7 0.0
19/03:30pm 18.2 13.4 7.3 49 5.5 SSW 22 33 12 18 1017.7 1017.7 0.0
19/03:00pm 18.2 13.1 7.6 50 5.4 SSW 24 32 13 17 1017.6 1017.6 0.0
19/02:30pm 17.8 13.0 7.5 51 5.2 SW 22 33 12 18 1017.9 1017.9 0.0
19/02:00pm 18.2 13.2 8.2 52 5.1 SSW 24 35 13 19 1017.8 1017.8 0.0
19/01:30pm 17.9 13.3 8.2 53 5.0 SW 22 33 12 18 1017.7 1017.7 0.0
19/01:00pm 18.1 13.0 7.8 51 5.2 SW 24 39 13 21 1018.0 1018.0 0.0
19/12:30pm 17.9 12.7 7.3 50 5.3 SW 24 37 13 20 1017.9 1017.9 0.0
19/12:00pm 16.9 12.2 7.8 55 4.6 SW 22 32 12 17 1017.7 1017.7 0.0
19/11:30am 16.2 11.8 8.9 62 3.7 SW 22 30 12 16 1017.6 1017.6 0.0
19/11:00am 16.9 12.6 9.3 61 3.9 WSW 22 35 12 19 1017.4 1017.4 0.0
19/10:30am 16.3 12.2 8.5 60 4.0 WSW 20 30 11 16 1017.3 1017.3 0.0
19/10:00am 15.7 10.9 8.9 64 3.5 SW 24 33 13 18 1017.0 1017.0 0.0
19/09:30am 16.0 11.0 8.2 60 3.9 WSW 24 33 13 18 1016.6 1016.6 0.0
19/09:00am 15.4 10.9 8.6 64 3.4 WSW 22 32 12 17 1016.5 1016.5 9.4
19/08:30am 15.4 11.0 8.9 65 3.3 WSW 22 32 12 17 1016.1 1016.1 9.4
19/08:00am 14.6 10.7 9.4 71 2.7 WSW 20 28 11 15 1015.9 1015.9 9.4
19/07:30am 14.0 10.2 9.8 76 2.2 W 20 32 11 17 1015.4 1015.4 9.4
19/07:00am 14.0 10.7 8.0 67 3.0 WSW 15 24 8 13 1015.2 1015.2 9.4
19/06:30am 13.6 9.4 7.4 66 3.0 WSW 19 30 10 16 1014.9 1014.9 9.4
19/06:00am 13.7 9.1 8.1 69 2.8 WSW 22 32 12 17 1014.7 1014.7 9.4
19/05:30am 13.6 9.6 8.2 70 2.7 WSW 19 28 10 15 1014.4 1014.4 9.4
19/05:00am 13.6 9.9 7.8 68 2.9 WSW 17 26 9 14 1014.1 1014.1 9.4
19/04:30am 14.2 9.9 7.9 66 3.1 WSW 20 30 11 16 1013.7 1013.7 9.4
19/04:00am 14.0 10.4 8.2 68 2.9 WSW 17 30 9 16 1013.4 1013.4 9.4
19/03:30am 14.2 11.5 9.0 71 2.6 W 13 22 7 12 1013.3 1013.3 9.4
19/03:00am 14.1 9.8 6.9 62 3.5 WSW 19 30 10 16 1013.2 1013.2 9.4
19/02:30am 14.4 10.3 7.7 64 3.3 WSW 19 26 10 14 1013.3 1013.3 9.4
19/02:00am 14.3 10.0 7.8 65 3.2 WSW 20 30 11 16 1013.1 1013.1 9.4
19/01:30am 14.4 10.1 7.2 62 3.5 WSW 19 26 10 14 1013.2 1013.2 9.4
19/01:00am 14.6 10.1 6.9 60 3.8 WSW 20 28 11 15 1013.3 1013.3 9.4
19/12:30am 14.7 11.1 6.8 59 3.8 WSW 15 24 8 13 1013.2 1013.2 9.4
19/12:00am 14.6 10.6 6.7 59 3.8 WSW 17 28 9 15 1013.1 1013.1 9.4
 
Date/Time
EDT
Tmp

°C
App
Tmp
°C
Dew
Point
°C
Rel
Hum
%
Delta-T

°C
Wind Press
QNH
hPa
Press
MSL
hPa
Rain
since
9 am
mm
Dir
 
Spd
km/h
Gust
km/h
Spd
kts
Gust
kts
18/11:30pm 14.9 11.9 7.7 62 3.6 WSW 13 20 7 11 1013.0 1013.0 9.4
18/11:00pm 15.3 11.2 7.8 61 3.7 WSW 19 32 10 17 1013.0 1013.0 9.4
18/10:30pm 15.3 11.4 8.8 65 3.3 WSW 19 32 10 17 1012.8 1012.8 9.4
18/10:00pm 14.8 11.5 9.6 71 2.7 SW 17 26 9 14 1012.6 1012.6 9.4
18/09:30pm 15.3 12.3 10.7 74 2.4 SW 17 22 9 12 1012.2 1012.2 9.4
18/09:00pm 14.6 12.1 9.6 72 2.6 SW 13 17 7 9 1011.8 1011.8 9.4
18/08:30pm 14.7 12.8 10.5 76 2.2 SW 11 17 6 9 1011.5 1011.5 9.4
18/08:00pm 15.0 13.7 11.2 78 2.0 SW 9 11 5 6 1011.2 1011.2 9.4
18/07:31pm 14.6 12.1 11.0 79 1.9 SSW 15 24 8 13 1010.8 1010.8 9.4
18/07:30pm 14.6 12.1 11.2 80 1.8 SSW 15 24 8 13 1010.8 1010.8 9.4
18/07:00pm 14.7 12.1 12.0 84 1.5 SSW 17 20 9 11 1010.3 1010.3 4.8
18/06:59pm 14.7 12.0 11.8 83 1.6 SSW 17 20 9 11 1010.3 1010.3 4.6
18/06:30pm 16.0 13.0 11.8 76 2.3 WSW 19 28 10 15 1009.7 1009.7 4.0
18/06:00pm 15.5 14.3 12.8 84 1.5 WSW 11 17 6 9 1009.1 1009.1 4.0
18/05:30pm 14.5 11.7 11.3 81 1.7 W 17 30 9 16 1009.3 1009.3 3.4
18/05:00pm 14.9 11.0 12.2 84 1.5 W 24 35 13 19 1009.0 1009.0 3.0
18/04:30pm 15.0 11.2 12.3 84 1.5 WSW 24 35 13 19 1008.8 1008.8 2.0
18/04:00pm 15.4 9.9 12.0 80 1.9 SW 32 43 17 23 1008.3 1008.3 0.6
18/03:30pm 18.1 12.5 11.4 65 3.7 WSW 32 61 17 33 1006.6 1006.6 0.0
18/03:29pm 19.2 14.1 10.5 57 4.7 WSW 28 61 15 33 1006.5 1006.5 0.0
18/03:00pm 22.1 16.8 8.6 42 7.2 WSW 26 35 14 19 1005.6 1005.6 0.0
18/02:30pm 21.8 16.9 8.3 42 7.1 WSW 24 32 13 17 1005.3 1005.3 0.0
18/02:00pm 22.0 16.4 7.0 38 7.7 WSW 26 33 14 18 1005.3 1005.3 0.0
18/01:30pm 22.7 18.8 9.5 43 7.1 WSW 20 33 11 18 1005.5 1005.5 0.0
18/01:00pm 21.2 15.8 7.8 42 7.0 WSW 26 35 14 19 1005.7 1005.7 0.0
18/12:30pm 21.0 15.8 8.9 46 6.4 WSW 26 39 14 21 1005.8 1005.8 0.0
18/12:00pm 20.6 15.0 8.6 46 6.3 WSW 28 46 15 25 1005.8 1005.8 0.0
18/11:59am 20.5 14.8 8.5 46 6.3 WSW 28 46 15 25 1005.8 1005.8 0.0
18/11:30am 20.0 15.0 9.6 51 5.5 WSW 26 37 14 20 1005.9 1005.9 0.0
18/11:00am 19.8 14.4 9.4 51 5.5 SW 28 35 15 19 1005.6 1005.6 0.0
18/10:30am 21.7 17.5 8.2 42 7.1 WNW 20 30 11 16 1005.5 1005.5 0.0
18/10:00am 21.1 17.1 6.6 39 7.4 NW 17 26 9 14 1005.7 1005.7 0.0
18/09:30am 20.5 16.1 6.4 40 7.1 NW 19 30 10 16 1005.7 1005.7 0.0
18/09:00am 18.5 14.6 7.3 48 5.7 NW 17 24 9 13 1005.6 1005.6 0.0
18/08:30am 17.0 14.1 8.2 56 4.5 NNW 13 20 7 11 1005.5 1005.5 0.0
18/08:00am 15.6 12.7 8.1 61 3.8 NNW 13 17 7 9 1005.7 1005.7 0.0
18/07:30am 14.2 11.7 8.2 67 3.0 N 11 17 6 9 1005.4 1005.4 0.0
18/07:00am 12.9 10.3 7.8 71 2.5 NNW 11 15 6 8 1005.5 1005.5 0.0
18/06:30am 11.4 9.5 7.5 77 1.9 N 7 9 4 5 1005.5 1005.5 0.0
18/06:00am 11.1 8.5 7.6 79 1.7 N 11 13 6 7 1005.5 1005.5 0.0
18/05:30am 11.0 8.0 7.5 79 1.7 N 13 17 7 9 1005.2 1005.2 0.0
18/05:00am 10.4 7.3 7.1 80 1.6 N 13 15 7 8 1005.2 1005.2 0.0
18/04:30am 11.1 9.8 7.8 80 1.6 N 4 9 2 5 1005.3 1005.3 0.0
18/04:00am 10.3 8.4 6.8 79 1.7 NNE 6 9 3 5 1005.1 1005.1 0.0
18/03:30am 10.5 9.7 6.6 77 1.8 CALM 0 6 0 3 1005.3 1005.3 0.0
18/03:00am 11.0 9.4 6.4 73 2.2 N 4 7 2 4 1005.4 1005.4 0.0
18/02:30am 11.4 9.5 6.7 73 2.2 ENE 6 7 3 4 1005.5 1005.5 0.0
18/02:00am 11.7 8.8 6.4 70 2.5 E 11 13 6 7 1005.6 1005.6 0.0
18/01:30am 11.7 9.5 6.0 68 2.7 ESE 7 9 4 5 1006.1 1006.1 0.0
18/01:00am 12.2 9.5 5.8 65 3.0 SE 9 13 5 7 1006.3 1006.3 0.0
18/12:30am 12.8 9.4 5.9 63 3.2 SE 13 19 7 10 1006.6 1006.6 0.0
18/12:00am 13.1 8.9 5.5 60 3.6 SE 17 20 9 11 1007.1 1007.1 0.0
 
Date/Time
EDT
Tmp

°C
App
Tmp
°C
Dew
Point
°C
Rel
Hum
%
Delta-T

°C
Wind Press
QNH
hPa
Press
MSL
hPa
Rain
since
9 am
mm
Dir
 
Spd
km/h
Gust
km/h
Spd
kts
Gust
kts
17/11:30pm 13.5 10.0 5.4 58 3.8 SE 13 17 7 9 1007.6 1007.6 0.0
17/11:00pm 14.0 10.3 6.4 60 3.7 SE 15 20 8 11 1007.9 1007.9 0.0
17/10:30pm 14.3 10.5 7.6 64 3.3 SE 17 20 9 11 1008.1 1008.1 0.0
17/10:00pm 14.2 10.3 7.3 63 3.4 SE 17 22 9 12 1008.3 1008.3 0.0
17/09:30pm 14.8 10.6 7.6 62 3.6 SE 19 24 10 13 1008.4 1008.4 0.0
17/09:00pm 15.3 11.0 6.8 57 4.2 SE 19 26 10 14 1008.1 1008.1 0.0
17/08:30pm 16.2 11.8 7.2 55 4.5 SE 20 26 11 14 1008.0 1008.0 0.0
17/08:00pm 17.3 11.6 6.8 50 5.2 SE 26 33 14 18 1008.0 1008.0 0.0
17/07:30pm 18.2 12.5 6.7 47 5.7 SE 26 33 14 18 1007.7 1007.7 0.0
17/07:00pm 18.9 13.2 6.7 45 6.1 SSE 26 33 14 18 1007.4 1007.4 0.0
17/06:30pm 19.8 15.4 7.2 44 6.4 S 20 30 11 16 1007.2 1007.2 0.0
17/06:00pm 20.3 16.2 7.7 44 6.5 SSW 19 26 10 14 1007.1 1007.1 0.0
17/05:30pm 20.0 15.9 8.0 46 6.2 S 19 26 10 14 1007.2 1007.2 0.0
17/05:00pm 20.2 15.4 5.8 39 7.2 S 20 28 11 15 1007.5 1007.5 0.0
17/04:30pm 20.0 15.1 4.1 35 7.6 SSW 19 26 10 14 1007.6 1007.6 0.0
17/04:00pm 19.5 14.6 4.0 36 7.4 SSW 19 28 10 15 1007.9 1007.9 0.0
17/03:30pm 20.0 15.9 4.5 36 7.5 SW 15 20 8 11 1008.2 1008.2 0.0
17/03:00pm 20.0 16.2 5.6 39 7.1 SW 15 24 8 13 1008.5 1008.5 0.0
17/02:30pm 19.4 15.4 5.1 39 7.0 SW 15 24 8 13 1008.7 1008.7 0.0
17/02:00pm 19.8 16.5 6.5 42 6.7 SSW 13 20 7 11 1009.0 1009.0 0.0
17/01:30pm 19.1 15.8 6.6 44 6.3 SW 13 17 7 9 1009.3 1009.3 0.0
17/01:00pm 17.8 14.1 4.4 41 6.4 SW 13 24 7 13 1009.5 1009.5 0.0
17/12:30pm 17.9 15.1 7.0 49 5.4 SW 11 20 6 11 1009.6 1009.6 0.0
17/12:00pm 18.4 14.7 7.8 50 5.4 SW 17 26 9 14 1009.6 1009.6 0.0
17/11:30am 17.1 13.3 5.7 47 5.5 WSW 15 22 8 12 1009.5 1009.5 0.0

Latest Capital City Observations: Canberra | Sydney | Melbourne | Brisbane | Adelaide | Perth | Hobart | Darwin

Other Formats:

Comma delimited format used in spreadsheet applications
http://www.bom.gov.au/fwo/IDV60901/IDV60901.94870.axf

JavaScript Object Notation format (JSON) in row-major order
http://www.bom.gov.au/fwo/IDV60901/IDV60901.94870.json